Time;durP1;ratioP1;P1;durP2;ratioP2;P2;SDS_P1;SDS_P2;PMS_P1;PMS_P2;Temp;Humidity;BMP_temperature;BMP_pressure;BME280_temperature;BME280_humidity;BME280_pressure;Samples;Min_cycle;Max_cycle;Signal;HPM_P1;HPM_P2
2023/06/09 00:00:07;;;;;;;8.40;4.20;;;;;;;19.68;63.46;100898.67;109248;1248;63847;-64
2023/06/09 00:02:37;;;;;;;7.70;4.30;;;;;;;19.52;64.28;100902.88;109430;1246;57613;-65
2023/06/09 00:05:06;;;;;;;6.20;4.00;;;;;;;19.47;64.36;100899.16;109426;1244;60303;-64
2023/06/09 00:07:36;;;;;;;8.10;4.20;;;;;;;19.34;64.74;100902.79;109423;1244;72994;-65
2023/06/09 00:10:06;;;;;;;6.10;4.10;;;;;;;19.26;64.61;100903.13;109425;1245;61285;-64
2023/06/09 00:12:34;;;;;;;6.80;3.90;;;;;;;19.18;64.65;100901.17;109452;1244;69649;-65
2023/06/09 00:15:04;;;;;;;6.50;4.00;;;;;;;19.08;65.69;100901.31;109391;1245;63847;-64
2023/06/09 00:17:34;;;;;;;8.30;4.40;;;;;;;18.98;65.94;100899.06;109283;1247;57748;-64
2023/06/09 00:20:03;;;;;;;6.50;4.50;;;;;;;18.87;65.95;100898.23;109095;1244;57727;-64
2023/06/09 00:22:32;;;;;;;8.80;4.70;;;;;;;18.75;66.78;100897.86;109286;1245;62589;-64
2023/06/09 00:25:01;;;;;;;8.80;4.30;;;;;;;18.67;67.38;100900.15;109286;1246;60818;-63
2023/06/09 00:27:30;;;;;;;8.80;4.40;;;;;;;18.61;67.47;100901.17;109218;1248;59204;-64
2023/06/09 00:29:59;;;;;;;7.90;4.50;;;;;;;18.55;67.68;100899.81;109240;1244;73868;-65
2023/06/09 00:32:28;;;;;;;7.40;4.10;;;;;;;18.48;67.83;100899.79;109334;1247;60512;-65
2023/06/09 00:34:57;;;;;;;7.40;4.00;;;;;;;18.44;67.98;100895.60;109274;1247;57703;-64
2023/06/09 00:37:26;;;;;;;6.70;4.30;;;;;;;18.37;68.53;100895.45;109443;1245;72645;-64
2023/06/09 00:39:55;;;;;;;7.50;4.20;;;;;;;18.24;69.63;100896.91;109366;1245;72519;-63
2023/06/09 00:42:24;;;;;;;6.80;4.10;;;;;;;18.16;69.92;100891.08;109359;1244;68836;-66
2023/06/09 00:44:53;;;;;;;6.90;3.90;;;;;;;18.12;69.29;100886.44;109268;1245;64362;-64
2023/06/09 00:47:22;;;;;;;6.70;4.40;;;;;;;18.03;70.05;100889.77;109274;1246;61316;-64
2023/06/09 00:49:51;;;;;;;6.30;3.90;;;;;;;17.95;70.12;100892.15;109102;1244;59334;-64
2023/06/09 00:52:20;;;;;;;7.00;4.00;;;;;;;17.94;70.04;100887.72;109222;1244;63082;-64
2023/06/09 00:54:52;;;;;;;8.60;4.70;;;;;;;17.91;70.05;100892.39;109199;1247;69985;-63
2023/06/09 00:57:21;;;;;;;7.70;4.40;;;;;;;17.81;70.68;100880.05;109497;1242;69728;-63
2023/06/09 00:59:50;;;;;;;8.10;4.60;;;;;;;17.71;71.80;100886.58;109455;1244;63654;-65
2023/06/09 01:02:20;;;;;;;6.70;4.20;;;;;;;17.61;72.36;100887.29;109461;1244;57604;-65
2023/06/09 01:04:52;;;;;;;6.20;4.40;;;;;;;17.57;72.27;100888.31;109487;1243;57710;-65
2023/06/09 01:07:38;;;;;;;7.20;4.00;;;;;;;17.55;71.87;100886.31;109330;1245;72626;-65
2023/06/09 01:10:30;;;;;;;6.70;3.80;;;;;;;17.44;72.91;100883.81;109345;1244;61177;-65
2023/06/09 01:13:28;;;;;;;5.90;4.20;;;;;;;17.40;73.21;100881.98;109270;1243;68850;-65
2023/06/09 01:16:03;;;;;;;9.20;4.90;;;;;;;17.37;73.39;100883.48;109469;1242;74114;-65
2023/06/09 01:18:35;;;;;;;10.40;4.30;;;;;;;17.38;73.21;100882.52;109285;1245;57651;-64
2023/06/09 01:21:35;;;;;;;8.00;4.20;;;;;;;17.35;73.08;100882.09;109354;1243;61156;-65
2023/06/09 01:24:32;;;;;;;8.80;4.20;;;;;;;17.33;72.76;100881.92;109279;1241;73490;-65
2023/06/09 01:27:03;;;;;;;9.30;4.10;;;;;;;17.31;72.42;100883.71;109381;1241;72746;-64
2023/06/09 01:29:35;;;;;;;9.30;4.10;;;;;;;17.28;72.70;100885.30;109469;1241;71413;-65
2023/06/09 01:32:04;;;;;;;7.10;4.40;;;;;;;17.19;73.27;100881.83;109359;1247;74196;-65
2023/06/09 01:34:34;;;;;;;9.50;4.50;;;;;;;17.18;73.04;100878.61;109463;1243;61595;-65
2023/06/09 01:37:03;;;;;;;8.60;4.50;;;;;;;17.18;72.68;100879.00;109379;1241;57703;-64
2023/06/09 01:39:33;;;;;;;8.20;4.30;;;;;;;17.18;72.96;100883.05;109391;1241;73772;-65
2023/06/09 01:42:01;;;;;;;7.50;4.30;;;;;;;17.19;72.66;100880.83;109294;1241;72162;-65
2023/06/09 01:44:30;;;;;;;7.20;4.00;;;;;;;17.17;72.73;100880.47;109554;1241;60447;-65
2023/06/09 01:46:59;;;;;;;6.30;4.10;;;;;;;17.15;72.62;100880.98;109496;1241;71793;-65
2023/06/09 01:49:43;;;;;;;7.60;4.10;;;;;;;17.14;72.74;100883.65;109564;1243;57692;-67
2023/06/09 01:52:56;;;;;;;8.30;4.50;;;;;;;17.10;72.18;100884.69;109384;1246;61188;-64
2023/06/09 01:55:34;;;;;;;8.60;4.40;;;;;;;17.05;72.63;100885.49;109427;1241;65023;-64
2023/06/09 01:58:24;;;;;;;8.00;4.20;;;;;;;17.00;73.81;100889.42;109480;1241;71342;-65
2023/06/09 02:00:56;;;;;;;8.40;4.10;;;;;;;16.98;73.87;100888.00;109372;1241;70103;-65
2023/06/09 02:03:27;;;;;;;6.00;4.20;;;;;;;17.01;73.72;100886.41;109366;1241;74352;-64
2023/06/09 02:05:57;;;;;;;7.20;4.50;;;;;;;17.03;73.47;100883.64;109342;1241;57286;-64
2023/06/09 02:08:29;;;;;;;8.40;4.10;;;;;;;17.04;73.35;100886.84;109423;1245;60706;-63
2023/06/09 02:10:58;;;;;;;7.30;4.10;;;;;;;17.04;72.92;100886.32;109504;1241;63416;-64
2023/06/09 02:13:27;;;;;;;7.80;4.50;;;;;;;17.01;73.29;100884.14;109644;1241;62639;-65
2023/06/09 02:15:56;;;;;;;5.80;4.30;;;;;;;16.98;73.27;100886.55;109728;1241;68869;-63
2023/06/09 02:18:25;;;;;;;8.50;4.50;;;;;;;16.94;73.92;100883.27;109415;1241;74316;-64
2023/06/09 02:20:54;;;;;;;8.60;4.30;;;;;;;16.91;73.84;100884.77;109613;1241;57729;-65
2023/06/09 02:23:24;;;;;;;7.70;4.70;;;;;;;16.87;74.19;100886.36;109735;1241;57164;-65
2023/06/09 02:25:53;;;;;;;8.90;4.90;;;;;;;16.86;74.19;100889.27;109429;1241;73951;-64
2023/06/09 02:28:22;;;;;;;9.70;4.60;;;;;;;16.87;74.03;100889.61;109651;1241;62548;-64
2023/06/09 02:30:51;;;;;;;8.40;5.10;;;;;;;16.85;74.68;100889.29;109630;1241;59164;-65
2023/06/09 02:33:20;;;;;;;14.50;4.90;;;;;;;16.84;74.83;100887.38;109589;1241;74433;-65
2023/06/09 02:35:49;;;;;;;13.20;4.50;;;;;;;16.82;74.70;100889.16;109468;1243;62300;-65
2023/06/09 02:38:17;;;;;;;10.50;4.40;;;;;;;16.81;74.64;100888.77;109521;1241;61589;-64
2023/06/09 02:40:47;;;;;;;8.70;4.20;;;;;;;16.79;74.51;100890.17;109517;1241;72558;-64
2023/06/09 02:43:16;;;;;;;8.60;4.80;;;;;;;16.76;74.75;100891.14;109404;1241;62242;-64
2023/06/09 02:45:46;;;;;;;9.00;4.80;;;;;;;16.71;75.25;100891.09;109455;1241;60028;-64
2023/06/09 02:48:15;;;;;;;7.80;5.00;;;;;;;16.68;75.35;100892.36;109610;1241;63221;-64
2023/06/09 02:50:44;;;;;;;10.90;4.60;;;;;;;16.68;75.03;100893.06;109627;1244;61068;-64
2023/06/09 02:53:13;;;;;;;7.90;4.70;;;;;;;16.71;74.55;100892.87;109601;1244;57626;-64
2023/06/09 02:55:44;;;;;;;8.00;4.40;;;;;;;16.68;75.30;100892.23;109479;1241;62187;-64
2023/06/09 02:58:17;;;;;;;8.50;4.80;;;;;;;16.66;75.93;100891.17;109439;1244;72647;-67
2023/06/09 03:00:47;;;;;;;13.30;6.90;;;;;;;16.67;76.18;100889.45;109501;1241;71247;-64
2023/06/09 03:03:17;;;;;;;6.90;4.70;;;;;;;16.70;75.78;100894.53;109519;1241;63843;-64
2023/06/09 03:05:49;;;;;;;9.50;4.80;;;;;;;16.77;75.46;100898.32;109541;1244;57565;-63
2023/06/09 03:08:18;;;;;;;8.50;5.00;;;;;;;16.83;75.67;100902.39;109493;1242;61264;-64
2023/06/09 03:10:48;;;;;;;10.80;5.70;;;;;;;16.88;75.61;100903.51;109523;1244;62625;-64
2023/06/09 03:13:19;;;;;;;12.70;4.90;;;;;;;16.94;75.38;100907.35;109668;1241;72163;-65
2023/06/09 03:15:50;;;;;;;10.80;5.80;;;;;;;17.01;75.35;100913.36;109612;1243;71827;-65
2023/06/09 03:18:20;;;;;;;12.60;5.40;;;;;;;17.06;75.30;100913.64;109525;1241;63628;-63
2023/06/09 03:20:50;;;;;;;10.20;5.80;;;;;;;17.10;75.04;100913.89;109630;1244;62905;-64
2023/06/09 03:23:20;;;;;;;11.70;5.80;;;;;;;17.16;75.19;100917.52;109574;1241;62161;-64
2023/06/09 03:25:51;;;;;;;9.90;5.10;;;;;;;17.21;74.54;100919.98;109694;1241;62866;-64
2023/06/09 03:28:22;;;;;;;9.10;5.00;;;;;;;17.31;72.76;100921.18;109583;1246;62270;-64
2023/06/09 03:30:51;;;;;;;14.10;5.50;;;;;;;17.44;71.17;100922.50;109530;1243;69859;-64
2023/06/09 03:33:20;;;;;;;9.80;5.20;;;;;;;17.57;69.93;100923.71;109704;1241;73815;-64
2023/06/09 03:35:49;;;;;;;7.40;4.70;;;;;;;17.70;69.36;100924.41;109552;1246;57489;-64
2023/06/09 03:38:19;;;;;;;11.70;5.40;;;;;;;17.82;68.60;100923.04;109547;1241;60620;-65
2023/06/09 03:40:48;;;;;;;11.90;5.10;;;;;;;17.94;67.71;100922.94;109671;1241;74108;-64
2023/06/09 03:43:17;;;;;;;10.50;4.40;;;;;;;18.04;67.09;100925.29;109669;1241;71542;-63
2023/06/09 03:45:46;;;;;;;13.20;7.20;;;;;;;18.09;66.80;100922.28;109659;1241;60530;-64
2023/06/09 03:48:16;;;;;;;14.50;9.00;;;;;;;18.17;66.70;100924.14;109690;1241;63259;-65
2023/06/09 03:50:45;;;;;;;9.90;4.90;;;;;;;18.25;66.47;100927.68;109683;1242;60431;-64
2023/06/09 03:53:15;;;;;;;12.30;5.00;;;;;;;18.39;66.39;100926.65;109764;1241;60902;-66
2023/06/09 03:55:44;;;;;;;10.10;5.00;;;;;;;18.56;65.99;100930.02;109678;1241;63050;-65
2023/06/09 03:58:13;;;;;;;16.70;5.00;;;;;;;18.71;65.43;100932.39;109733;1241;61566;-65
2023/06/09 04:00:43;;;;;;;11.00;4.70;;;;;;;18.81;64.14;100933.64;109547;1241;71190;-65
2023/06/09 04:03:13;;;;;;;9.50;4.20;;;;;;;18.90;63.38;100935.00;109602;1241;74392;-65
2023/06/09 04:05:44;;;;;;;11.70;5.50;;;;;;;19.02;62.82;100933.01;109719;1244;61280;-64
2023/06/09 04:08:13;;;;;;;12.50;6.40;;;;;;;19.07;62.67;100935.13;109708;1241;62015;-62
2023/06/09 04:10:42;;;;;;;13.80;5.30;;;;;;;19.15;62.14;100935.95;109753;1241;64340;-63
2023/06/09 04:13:11;;;;;;;19.60;5.80;;;;;;;19.19;62.07;100939.23;109654;1241;61640;-62
2023/06/09 04:15:40;;;;;;;11.50;4.90;;;;;;;19.21;62.26;100943.24;109322;1242;70387;-64
2023/06/09 04:18:09;;;;;;;11.70;4.80;;;;;;;19.22;62.61;100948.23;109523;1242;62934;-64
2023/06/09 04:20:39;;;;;;;10.90;4.70;;;;;;;19.27;62.56;100945.92;109531;1245;57669;-64
2023/06/09 04:23:09;;;;;;;11.70;5.60;;;;;;;19.26;62.33;100945.38;109526;1242;61235;-63
2023/06/09 04:25:41;;;;;;;8.20;4.70;;;;;;;19.23;62.44;100951.46;109555;1243;74631;-64
2023/06/09 04:28:17;;;;;;;8.60;4.70;;;;;;;19.35;62.10;100955.70;109605;1244;62075;-64
2023/06/09 04:30:49;;;;;;;9.90;5.00;;;;;;;19.38;62.23;100955.88;109535;1241;70628;-63
2023/06/09 04:33:18;;;;;;;8.30;5.60;;;;;;;19.37;61.96;100955.45;109644;1241;73577;-63
2023/06/09 04:35:53;;;;;;;12.10;5.10;;;;;;;19.29;62.29;100957.38;109626;1242;57658;-64
2023/06/09 04:38:23;;;;;;;11.40;4.90;;;;;;;19.31;62.53;100957.31;109599;1241;59392;-64
2023/06/09 04:40:57;;;;;;;10.40;4.90;;;;;;;19.32;62.59;100957.05;109456;1245;62661;-64
2023/06/09 04:43:29;;;;;;;13.50;6.30;;;;;;;19.35;62.13;100956.53;109582;1243;72109;-66
2023/06/09 04:46:00;;;;;;;11.30;6.60;;;;;;;19.37;62.49;100956.55;109450;1243;70863;-66
2023/06/09 04:48:29;;;;;;;12.00;6.80;;;;;;;19.42;62.01;100955.12;109405;1244;74930;-65
2023/06/09 04:51:01;;;;;;;15.20;6.50;;;;;;;19.54;61.88;100953.79;109557;1245;57627;-70
2023/06/09 04:53:35;;;;;;;17.50;6.70;;;;;;;19.67;61.54;100950.23;109565;1241;60886;-65
2023/06/09 04:56:06;;;;;;;10.90;6.50;;;;;;;19.72;61.23;100949.08;109705;1241;73605;-63
2023/06/09 04:58:38;;;;;;;11.80;6.20;;;;;;;19.72;61.28;100943.44;109698;1241;62533;-65
2023/06/09 05:01:07;;;;;;;15.10;6.80;;;;;;;19.82;61.15;100943.25;109673;1241;71465;-63
2023/06/09 05:03:36;;;;;;;14.20;7.30;;;;;;;19.98;60.47;100943.52;109501;1241;74403;-64
2023/06/09 05:06:05;;;;;;;14.50;7.00;;;;;;;20.11;60.29;100939.75;109662;1241;60883;-64
2023/06/09 05:08:33;;;;;;;13.20;6.90;;;;;;;20.22;59.91;100941.23;109670;1241;60829;-63
2023/06/09 05:11:03;;;;;;;11.70;6.50;;;;;;;20.46;59.88;100940.70;109754;1244;62121;-64
2023/06/09 05:13:32;;;;;;;13.60;7.00;;;;;;;20.52;58.56;100937.02;109787;1241;61663;-63
2023/06/09 05:16:01;;;;;;;17.60;7.80;;;;;;;20.56;58.23;100935.52;109690;1241;68740;-64
2023/06/09 05:18:30;;;;;;;11.90;7.30;;;;;;;20.60;58.32;100933.02;109735;1241;73708;-64
2023/06/09 05:20:59;;;;;;;17.20;7.60;;;;;;;20.67;58.32;100936.30;109617;1242;59807;-68
2023/06/09 05:23:28;;;;;;;14.60;6.90;;;;;;;20.90;57.63;100932.80;109704;1244;57200;-64
2023/06/09 05:25:57;;;;;;;13.10;6.00;;;;;;;21.06;56.96;100926.25;109740;1243;63003;-65
2023/06/09 05:28:26;;;;;;;10.60;5.80;;;;;;;21.19;56.12;100921.04;109598;1244;60987;-64
2023/06/09 05:30:55;;;;;;;8.30;5.30;;;;;;;21.20;54.86;100924.92;109489;1245;60414;-69
2023/06/09 05:33:24;;;;;;;9.50;5.10;;;;;;;21.14;54.43;100924.72;109615;1243;63655;-68
2023/06/09 05:35:53;;;;;;;10.60;5.00;;;;;;;21.24;54.06;100920.66;109430;1247;57548;-70
2023/06/09 05:38:23;;;;;;;13.70;5.60;;;;;;;21.21;53.51;100921.63;109548;1243;57961;-68
2023/06/09 05:40:52;;;;;;;12.40;5.10;;;;;;;21.29;53.30;100917.17;109544;1243;73075;-67
2023/06/09 05:43:25;;;;;;;9.50;4.20;;;;;;;21.43;52.03;100921.62;109692;1241;71178;-69
2023/06/09 05:45:55;;;;;;;9.40;4.20;;;;;;;21.21;50.92;100918.14;109434;1241;69393;-68
2023/06/09 05:48:24;;;;;;;6.80;4.50;;;;;;;21.29;50.77;100916.44;109539;1245;63259;-68
2023/06/09 05:50:53;;;;;;;12.30;5.00;;;;;;;21.48;51.09;100920.40;109527;1244;58951;-66
2023/06/09 05:53:23;;;;;;;9.20;5.30;;;;;;;21.66;51.55;100925.30;109622;1241;57104;-67
2023/06/09 05:55:53;;;;;;;13.00;4.60;;;;;;;21.80;51.16;100926.60;109710;1244;62923;-67
2023/06/09 05:58:22;;;;;;;9.20;4.30;;;;;;;21.97;50.50;100927.80;109497;1247;61684;-68
2023/06/09 06:00:51;;;;;;;8.90;4.60;;;;;;;22.14;49.98;100928.21;109683;1242;59972;-67
2023/06/09 06:03:20;;;;;;;11.40;5.30;;;;;;;22.18;48.42;100925.23;109630;1243;62497;-68
2023/06/09 06:05:49;;;;;;;11.40;5.00;;;;;;;22.25;48.37;100924.81;109521;1244;57830;-68
2023/06/09 06:08:18;;;;;;;10.60;4.70;;;;;;;22.35;48.44;100924.75;109515;1245;57164;-67
2023/06/09 06:10:47;;;;;;;8.30;4.90;;;;;;;22.37;48.26;100919.67;109542;1242;62960;-67
2023/06/09 06:13:16;;;;;;;9.60;5.00;;;;;;;22.58;48.00;100923.65;109383;1241;71332;-67
2023/06/09 06:15:45;;;;;;;9.70;5.00;;;;;;;22.57;47.81;100925.60;109490;1245;69162;-68
2023/06/09 06:18:14;;;;;;;10.10;4.80;;;;;;;22.62;47.80;100926.08;109464;1244;62618;-68
2023/06/09 06:20:43;;;;;;;11.60;4.60;;;;;;;22.87;48.10;100925.97;109477;1245;58153;-68
2023/06/09 06:23:13;;;;;;;10.40;4.80;;;;;;;23.02;47.92;100920.55;109499;1244;62137;-68
2023/06/09 06:25:41;;;;;;;12.60;5.60;;;;;;;23.19;47.79;100918.65;109449;1241;74074;-67
2023/06/09 06:28:10;;;;;;;16.50;4.60;;;;;;;23.21;48.65;100922.04;109589;1242;72495;-68
2023/06/09 06:30:40;;;;;;;9.40;4.70;;;;;;;23.17;49.13;100923.16;109655;1245;59916;-68
2023/06/09 06:33:08;;;;;;;11.10;4.90;;;;;;;23.27;48.63;100920.98;109570;1243;65467;-69
2023/06/09 06:35:37;;;;;;;13.10;5.10;;;;;;;23.39;47.93;100925.21;109540;1245;57185;-67
2023/06/09 06:38:06;;;;;;;12.70;5.30;;;;;;;23.25;47.78;100923.05;109682;1244;57931;-68
2023/06/09 06:40:35;;;;;;;11.60;5.60;;;;;;;23.25;47.72;100922.67;109673;1244;63722;-67
2023/06/09 06:43:04;;;;;;;8.40;5.00;;;;;;;23.40;47.39;100924.04;109669;1245;62127;-68
2023/06/09 06:46:23;;;;;;;11.80;5.20;;;;;;;23.26;47.81;100922.21;109562;1243;70512;-68
2023/06/09 06:48:52;;;;;;;9.50;5.20;;;;;;;23.43;47.92;100923.83;109623;1243;74275;-68
2023/06/09 06:51:20;;;;;;;10.30;5.40;;;;;;;23.70;47.72;100922.67;109625;1242;61589;-68
2023/06/09 06:53:49;;;;;;;13.30;5.30;;;;;;;23.64;46.51;100922.11;109710;1244;57662;-66
2023/06/09 06:56:18;;;;;;;9.60;5.30;;;;;;;23.61;46.64;100918.09;109610;1245;63042;-67
2023/06/09 06:58:47;;;;;;;9.60;5.10;;;;;;;23.78;46.30;100910.55;109613;1244;60837;-69
2023/06/09 07:01:25;;;;;;;8.80;5.00;;;;;;;23.82;45.53;100903.04;109593;1241;59988;-68
2023/06/09 07:03:56;;;;;;;12.90;5.00;;;;;;;23.99;45.63;100898.13;109434;1248;73856;-70
2023/06/09 07:06:25;;;;;;;10.20;5.70;;;;;;;24.11;44.94;100901.09;109744;1241;60982;-68
2023/06/09 07:08:55;;;;;;;12.00;4.70;;;;;;;24.36;45.06;100903.02;109720;1241;61761;-68
2023/06/09 07:11:24;;;;;;;8.90;4.70;;;;;;;24.45;44.74;100898.94;109691;1244;62829;-68
2023/06/09 07:13:56;;;;;;;8.10;4.80;;;;;;;24.50;44.68;100899.25;109730;1241;71448;-67
2023/06/09 07:16:25;;;;;;;12.90;5.00;;;;;;;24.57;44.71;100900.03;109660;1242;70794;-67
2023/06/09 07:18:54;;;;;;;7.80;4.50;;;;;;;24.55;43.86;100901.21;109701;1245;63409;-68
2023/06/09 07:21:23;;;;;;;9.20;4.70;;;;;;;24.65;42.63;100902.38;109702;1245;59914;-67
2023/06/09 07:23:52;;;;;;;7.70;4.80;;;;;;;24.72;42.66;100899.11;109626;1243;60910;-68
2023/06/09 07:26:25;;;;;;;8.50;4.70;;;;;;;24.74;42.76;100898.38;109396;1244;63417;-70
2023/06/09 07:28:53;;;;;;;10.20;5.60;;;;;;;24.87;43.09;100897.91;109417;1243;72801;-68
2023/06/09 07:31:22;;;;;;;9.10;5.10;;;;;;;24.92;43.08;100895.13;109438;1244;60507;-67
2023/06/09 07:33:51;;;;;;;8.10;5.10;;;;;;;24.90;42.33;100887.38;109529;1242;63214;-68
2023/06/09 07:36:20;;;;;;;10.30;5.30;;;;;;;24.87;42.95;100892.19;109535;1242;57652;-68
2023/06/09 07:38:49;;;;;;;10.10;5.10;;;;;;;25.09;42.72;100887.77;109592;1244;61130;-68
2023/06/09 07:41:18;;;;;;;10.20;5.20;;;;;;;25.16;42.26;100885.40;109531;1244;65224;-68
2023/06/09 07:43:47;;;;;;;9.60;5.00;;;;;;;24.94;42.69;100880.21;109355;1243;62386;-67
2023/06/09 07:46:17;;;;;;;7.40;4.70;;;;;;;25.06;42.14;100890.58;109533;1243;69619;-67
2023/06/09 07:48:46;;;;;;;12.40;6.00;;;;;;;25.12;41.26;100885.79;109506;1244;73576;-68
2023/06/09 07:51:19;;;;;;;14.40;5.20;;;;;;;25.14;41.25;100888.17;109650;1244;57196;-68
2023/06/09 07:53:47;;;;;;;;;;;;;;;25.29;41.23;100887.77;109537;1244;57636;-68
2023/06/09 07:56:16;;;;;;;8.00;5.40;;;;;;;25.46;41.18;100890.38;109623;1242;63406;-68
2023/06/09 07:58:45;;;;;;;12.70;5.60;;;;;;;25.47;40.76;100886.96;109593;1241;72091;-68
2023/06/09 08:01:13;;;;;;;14.50;5.50;;;;;;;25.60;40.65;100883.77;109598;1241;71001;-67
2023/06/09 08:03:42;;;;;;;9.10;5.60;;;;;;;25.83;40.47;100881.36;109618;1241;72553;-69
2023/06/09 08:06:11;;;;;;;9.10;6.10;;;;;;;26.06;40.32;100884.59;109676;1244;60956;-68
2023/06/09 08:08:41;;;;;;;10.00;6.00;;;;;;;26.22;39.74;100886.51;109704;1241;57684;-67
2023/06/09 08:11:11;;;;;;;10.00;5.80;;;;;;;26.33;39.18;100883.93;109720;1241;63092;-68
2023/06/09 08:13:39;;;;;;;10.20;6.30;;;;;;;26.36;39.25;100880.70;109709;1241;72298;-68
2023/06/09 08:16:08;;;;;;;9.10;5.70;;;;;;;26.53;39.10;100878.58;109681;1241;70965;-67
2023/06/09 08:18:37;;;;;;;12.70;5.90;;;;;;;26.69;38.57;100879.34;109785;1241;62992;-68
2023/06/09 08:21:06;;;;;;;7.60;5.50;;;;;;;26.52;38.06;100874.13;109764;1244;57107;-68
2023/06/09 08:23:35;;;;;;;12.70;6.50;;;;;;;26.49;37.82;100870.61;109773;1241;57154;-69
2023/06/09 08:26:04;;;;;;;8.10;6.90;;;;;;;26.57;37.68;100871.92;109742;1245;73251;-69
2023/06/09 08:28:33;;;;;;;8.80;6.30;;;;;;;26.61;37.40;100872.95;109771;1241;64115;-68
2023/06/09 08:31:01;;;;;;;11.80;7.30;;;;;;;26.71;36.92;100875.50;109682;1241;61200;-69
2023/06/09 08:33:35;;;;;;;10.40;7.40;;;;;;;26.83;35.90;100875.28;109735;1241;62337;-68
2023/06/09 08:36:04;;;;;;;11.70;7.20;;;;;;;26.98;35.39;100872.10;109437;1246;61164;-67
2023/06/09 08:38:35;;;;;;;13.40;8.10;;;;;;;26.99;34.96;100870.30;109561;1241;61589;-68
2023/06/09 08:41:08;;;;;;;14.60;7.10;;;;;;;27.12;35.23;100865.29;109534;1247;72686;-68
2023/06/09 08:43:37;;;;;;;13.90;6.10;;;;;;;27.21;34.98;100869.60;109728;1241;62002;-68
2023/06/09 08:46:10;;;;;;;14.40;6.50;;;;;;;27.06;34.12;100864.92;109749;1241;61378;-68
2023/06/09 08:48:50;;;;;;;11.10;6.10;;;;;;;27.05;34.02;100860.70;109468;1241;65046;-68
2023/06/09 08:51:21;;;;;;;8.80;6.80;;;;;;;27.22;34.51;100862.95;109414;1246;60698;-68
2023/06/09 08:53:53;;;;;;;12.10;6.80;;;;;;;27.55;34.22;100863.08;109483;1244;57633;-68
2023/06/09 08:56:23;;;;;;;9.10;6.20;;;;;;;27.61;33.95;100861.55;109520;1241;62853;-68
2023/06/09 08:58:52;;;;;;;7.70;5.80;;;;;;;27.62;33.75;100856.79;109493;1241;72213;-69
2023/06/09 09:01:21;;;;;;;10.00;6.00;;;;;;;27.83;33.61;100856.14;109474;1241;70866;-68
2023/06/09 09:03:50;;;;;;;11.20;6.00;;;;;;;27.72;33.33;100857.83;109544;1241;63154;-68
2023/06/09 09:06:20;;;;;;;14.70;5.90;;;;;;;27.46;33.35;100856.01;109441;1245;59373;-67
2023/06/09 09:08:48;;;;;;;9.20;5.80;;;;;;;27.73;33.64;100852.14;109284;1241;61653;-68
2023/06/09 09:11:18;;;;;;;12.60;6.80;;;;;;;27.90;33.37;100855.23;109524;1241;65682;-67
2023/06/09 09:13:50;;;;;;;12.70;5.80;;;;;;;28.05;32.98;100854.06;109505;1241;72939;-70
2023/06/09 09:16:19;;;;;;;13.00;6.00;;;;;;;28.07;32.84;100851.02;109477;1245;71221;-69
2023/06/09 09:18:48;;;;;;;12.30;5.80;;;;;;;27.99;32.90;100850.89;109366;1241;71837;-69
2023/06/09 09:21:22;;;;;;;10.90;5.20;;;;;;;27.89;32.26;100849.52;109675;1244;57715;-68
2023/06/09 09:24:04;;;;;;;8.10;4.70;;;;;;;27.85;32.21;100851.87;109441;1241;57704;-68
2023/06/09 09:26:33;;;;;;;8.50;5.00;;;;;;;27.58;31.86;100852.73;109548;1241;72932;-68
2023/06/09 09:29:07;;;;;;;10.50;5.30;;;;;;;27.58;32.43;100850.17;109663;1241;70972;-67
2023/06/09 09:31:41;;;;;;;8.10;5.10;;;;;;;27.60;32.21;100847.77;107551;1242;2648751;-69
2023/06/09 09:34:13;;;;;;;8.00;5.10;;;;;;;27.75;32.17;100842.05;109560;1241;73446;-68
2023/06/09 09:36:45;;;;;;;7.70;5.20;;;;;;;27.47;32.59;100840.80;109472;1247;57830;-67
2023/06/09 09:39:15;;;;;;;7.80;5.30;;;;;;;27.57;32.74;100841.55;109583;1241;57676;-68
2023/06/09 09:42:06;;;;;;;8.70;5.60;;;;;;;27.68;32.89;100840.90;109749;1241;64013;-68
2023/06/09 09:44:40;;;;;;;9.80;5.70;;;;;;;27.56;32.61;100828.77;109473;1241;70040;-68
2023/06/09 09:47:13;;;;;;;9.00;5.20;;;;;;;27.88;33.03;100825.61;109566;1241;60187;-68
2023/06/09 09:49:56;;;;;;;7.50;4.70;;;;;;;28.05;32.57;100827.46;109588;1241;63274;-67
2023/06/09 09:52:26;;;;;;;8.80;5.30;;;;;;;28.37;32.34;100818.77;109588;1245;57710;-68
2023/06/09 09:55:00;;;;;;;7.00;5.30;;;;;;;28.34;31.67;100817.19;109634;1241;57702;-69
2023/06/09 09:57:31;;;;;;;9.40;5.40;;;;;;;28.28;31.36;100814.54;109410;1241;63034;-68
2023/06/09 10:00:08;;;;;;;10.80;4.90;;;;;;;27.87;32.39;100812.99;109294;1241;71895;-68
2023/06/09 10:02:43;;;;;;;7.70;5.40;;;;;;;27.88;32.32;100811.20;109654;1243;59524;-67
2023/06/09 10:05:16;;;;;;;6.60;4.60;;;;;;;28.12;32.24;100809.08;109575;1241;63921;-72
2023/06/09 10:07:51;;;;;;;8.50;5.80;;;;;;;28.36;32.10;100804.48;109519;1241;57661;-69
2023/06/09 10:10:21;;;;;;;9.60;5.60;;;;;;;28.71;31.74;100801.67;109636;1241;57669;-68
2023/06/09 10:12:52;;;;;;;9.10;5.00;;;;;;;28.88;31.48;100806.91;109723;1242;63930;-71
2023/06/09 10:15:21;;;;;;;8.80;5.40;;;;;;;29.14;30.80;100808.14;109565;1241;72492;-68
2023/06/09 10:17:54;;;;;;;7.10;4.70;;;;;;;29.22;30.44;100807.27;109674;1241;62752;-68
2023/06/09 10:20:24;;;;;;;7.70;4.80;;;;;;;29.11;29.96;100801.85;109654;1241;63730;-69
2023/06/09 10:22:54;;;;;;;9.70;5.40;;;;;;;29.05;30.59;100795.64;109717;1241;57616;-70
2023/06/09 10:25:24;;;;;;;9.50;4.90;;;;;;;29.42;30.19;100797.75;109494;1241;57763;-68
2023/06/09 10:27:53;;;;;;;11.10;5.50;;;;;;;29.81;30.10;100796.48;109641;1245;62805;-69
2023/06/09 10:30:22;;;;;;;16.00;5.40;;;;;;;30.22;29.85;100795.57;109753;1245;60970;-69
2023/06/09 10:33:24;;;;;;;20.40;6.50;;;;;;;30.48;29.47;100791.42;109750;1241;59801;-73
2023/06/09 10:35:58;;;;;;;8.50;4.90;;;;;;;30.23;29.76;100782.54;109557;1241;73077;-72
2023/06/09 10:38:40;;;;;;;9.10;5.40;;;;;;;30.06;29.76;100780.67;109639;1245;57781;-72
2023/06/09 10:41:16;;;;;;;;;;;;;;;29.87;29.50;100780.67;109641;1245;57770;-72
2023/06/09 10:43:45;;;;;;;7.40;4.60;;;;;;;30.51;29.20;100776.88;109508;1241;73423;-72
2023/06/09 10:46:14;;;;;;;6.90;4.80;;;;;;;30.78;28.65;100773.73;109687;1245;61483;-73
2023/06/09 10:48:49;;;;;;;7.90;4.90;;;;;;;31.22;28.14;100774.09;109561;1241;60014;-68
2023/06/09 10:51:27;;;;;;;7.10;4.70;;;;;;;31.46;27.62;100768.31;109500;1241;62966;-70
2023/06/09 10:54:17;;;;;;;9.30;5.00;;;;;;;31.34;27.52;100764.44;109733;1241;60099;-72
2023/06/09 10:56:52;;;;;;;10.20;6.20;;;;;;;30.98;27.96;100765.55;109719;1241;62044;-71
2023/06/09 10:59:27;;;;;;;8.10;4.80;;;;;;;31.07;27.26;100757.73;109655;1241;63720;-69
2023/06/09 11:02:02;;;;;;;10.40;5.40;;;;;;;30.39;27.51;100756.75;109764;1244;61611;-70
2023/06/09 11:04:44;;;;;;;8.00;4.60;;;;;;;30.69;27.62;100753.61;109642;1245;59016;-71
2023/06/09 11:07:26;;;;;;;9.50;4.80;;;;;;;30.74;27.92;100752.27;109717;1241;62249;-72
2023/06/09 11:09:56;;;;;;;5.70;4.30;;;;;;;31.72;26.94;100745.15;109475;1244;61363;-68
2023/06/09 11:12:49;;;;;;;8.90;5.00;;;;;;;32.13;26.23;100741.03;109665;1241;62214;-69
2023/06/09 11:15:21;;;;;;;14.10;5.60;;;;;;;31.98;26.76;100741.92;109756;1243;62973;-68
2023/06/09 11:17:53;;;;;;;7.20;4.60;;;;;;;32.01;26.86;100740.72;109478;1248;60965;-70
2023/06/09 11:20:24;;;;;;;6.20;4.10;;;;;;;32.61;26.39;100732.16;109706;1245;59826;-68
2023/06/09 11:23:03;;;;;;;8.40;4.20;;;;;;;32.45;26.12;100732.48;109481;1247;63732;-74
2023/06/09 11:25:49;;;;;;;9.20;4.30;;;;;;;32.49;26.20;100729.42;109760;1241;57676;-70
2023/06/09 11:28:41;;;;;;;8.70;4.60;;;;;;;32.59;25.95;100725.70;109348;1248;57715;-74
2023/06/09 11:31:12;;;;;;;11.00;4.80;;;;;;;31.94;26.86;100724.83;109521;1245;62852;-69
2023/06/09 11:34:13;;;;;;;8.00;4.90;;;;;;;31.86;27.23;100726.85;109467;1247;62100;-77